createdAt,value
2018-06-01T00:00:51.274Z,6.70
2018-06-01T00:03:18.143Z,6.67
2018-06-01T00:05:44.986Z,7.27
2018-06-01T00:08:11.859Z,6.33
2018-06-01T00:10:38.703Z,7.63
2018-06-01T00:13:05.616Z,7.23
2018-06-01T00:15:32.575Z,7.23
2018-06-01T00:17:59.543Z,7.00
2018-06-01T00:20:26.382Z,7.10
2018-06-01T00:22:53.352Z,7.47
2018-06-01T00:25:20.217Z,7.67
2018-06-01T00:27:47.177Z,10.07
2018-06-01T00:30:14.048Z,7.37
2018-06-01T00:32:41.078Z,7.23
2018-06-01T00:35:08.306Z,5.17
2018-06-01T00:37:35.148Z,4.90
2018-06-01T00:40:02.024Z,5.10
2018-06-01T00:42:28.875Z,4.47
2018-06-01T00:44:56.159Z,4.63
2018-06-01T00:47:23.467Z,5.53
2018-06-01T00:49:50.315Z,5.40
2018-06-01T00:52:17.203Z,3.97
2018-06-01T00:54:55.991Z,5.10
2018-06-01T00:57:22.868Z,4.10
2018-06-01T00:59:49.727Z,4.73
2018-06-01T01:02:16.570Z,4.53
2018-06-01T01:04:43.451Z,5.43
2018-06-01T01:07:10.408Z,5.63
2018-06-01T01:09:37.247Z,5.30
2018-06-01T01:12:04.124Z,5.13
2018-06-01T01:14:30.983Z,2.33
2018-06-01T01:16:57.831Z,2.90
2018-06-01T01:19:24.681Z,2.50
2018-06-01T01:21:51.560Z,2.00
2018-06-01T01:24:18.435Z,2.03
2018-06-01T01:26:45.278Z,1.50
2018-06-01T01:29:12.207Z,1.60
2018-06-01T01:31:39.076Z,1.80
2018-06-01T01:34:05.949Z,1.20
2018-06-01T01:36:32.877Z,1.57
2018-06-01T01:38:59.739Z,1.50
2018-06-01T01:41:26.604Z,2.23
2018-06-01T01:43:53.453Z,1.40
2018-06-01T01:46:20.307Z,1.53
2018-06-01T01:48:47.391Z,1.93
2018-06-01T01:51:14.243Z,2.23
2018-06-01T01:53:41.188Z,1.80
2018-06-01T01:56:08.171Z,1.83
2018-06-01T01:58:35.043Z,2.10
2018-06-01T02:01:01.993Z,2.00
2018-06-01T02:03:28.927Z,1.90
2018-06-01T02:05:55.794Z,2.00
2018-06-01T02:08:22.659Z,2.07
2018-06-01T02:10:49.511Z,2.20
2018-06-01T02:13:16.454Z,2.37
2018-06-01T02:15:43.299Z,2.10
2018-06-01T02:18:10.170Z,1.60
2018-06-01T02:20:37.010Z,1.43
2018-06-01T02:23:03.895Z,1.70
2018-06-01T02:25:30.848Z,1.93
2018-06-01T02:27:57.799Z,1.77
2018-06-01T02:30:24.764Z,2.30
2018-06-01T02:32:51.626Z,2.07
2018-06-01T02:35:18.591Z,2.30
2018-06-01T02:37:45.540Z,2.43
2018-06-01T02:40:12.491Z,2.77
2018-06-01T02:42:39.355Z,2.53
2018-06-01T02:45:06.247Z,2.43
2018-06-01T02:47:33.116Z,2.30
2018-06-01T02:50:00.018Z,2.03
2018-06-01T02:52:26.991Z,2.53
2018-06-01T02:54:53.847Z,2.47
2018-06-01T02:57:20.699Z,3.10
2018-06-01T02:59:47.573Z,2.83
2018-06-01T03:02:14.451Z,2.20
2018-06-01T03:04:41.367Z,3.00
2018-06-01T03:07:11.984Z,2.40
2018-06-01T03:09:39.421Z,2.50
2018-06-01T03:12:06.348Z,2.67
2018-06-01T03:14:33.195Z,2.90
2018-06-01T03:17:00.048Z,3.40
2018-06-01T03:19:26.917Z,3.50
2018-06-01T03:21:53.796Z,2.80
2018-06-01T03:24:20.646Z,2.73
2018-06-01T03:26:47.598Z,3.00
2018-06-01T03:29:14.475Z,2.93
2018-06-01T03:31:41.332Z,2.70
2018-06-01T03:34:08.266Z,2.20
2018-06-01T03:36:35.135Z,3.03
2018-06-01T03:39:01.987Z,2.70
2018-06-01T03:41:28.848Z,3.37
2018-06-01T03:43:55.791Z,4.10
2018-06-01T03:46:22.642Z,3.77
2018-06-01T03:48:49.598Z,3.40
2018-06-01T03:51:16.559Z,3.20
2018-06-01T03:53:43.423Z,3.00
2018-06-01T03:56:10.306Z,3.30
2018-06-01T03:58:37.348Z,2.63
2018-06-01T04:01:04.313Z,2.90
2018-06-01T04:03:31.158Z,2.27
2018-06-01T04:05:58.024Z,3.37
2018-06-01T04:08:24.908Z,2.70
2018-06-01T04:10:51.788Z,3.30
2018-06-01T04:13:18.747Z,2.67
2018-06-01T04:15:46.080Z,3.13
2018-06-01T04:18:12.923Z,2.97
2018-06-01T04:20:39.872Z,2.90
2018-06-01T04:23:06.738Z,2.70
2018-06-01T04:25:33.635Z,2.93
2018-06-01T04:28:00.506Z,3.20
2018-06-01T04:30:27.358Z,2.97
2018-06-01T04:32:54.220Z,2.70
2018-06-01T04:35:21.067Z,3.30
2018-06-01T04:37:48.358Z,3.20
2018-06-01T04:40:15.611Z,3.00
2018-06-01T04:42:42.872Z,3.30
2018-06-01T04:45:10.141Z,2.80
2018-06-01T04:47:37.464Z,2.80
2018-06-01T04:50:04.330Z,3.20
2018-06-01T04:52:31.173Z,3.07
2018-06-01T04:54:58.120Z,2.87
2018-06-01T04:57:24.982Z,2.70
2018-06-01T04:59:51.943Z,2.27
2018-06-01T05:02:18.936Z,3.00
2018-06-01T05:04:45.805Z,3.00
2018-06-01T05:07:12.780Z,2.77
2018-06-01T05:09:40.080Z,3.17
2018-06-01T05:12:07.060Z,2.90
2018-06-01T05:14:33.922Z,3.27
2018-06-01T05:17:00.866Z,3.23
2018-06-01T05:19:27.745Z,3.00
2018-06-01T05:21:54.643Z,3.17
2018-06-01T05:24:21.557Z,3.20
2018-06-01T05:26:48.634Z,2.57
2018-06-01T05:29:15.477Z,2.73
2018-06-01T05:31:42.422Z,2.80
2018-06-01T05:34:09.432Z,2.77
2018-06-01T05:36:36.296Z,3.00
2018-06-01T05:39:05.487Z,2.10
2018-06-01T05:41:32.349Z,2.40
2018-06-01T05:43:59.272Z,3.10
2018-06-01T05:46:26.136Z,2.57
2018-06-01T05:48:53.081Z,3.10
2018-06-01T05:51:20.023Z,2.70
2018-06-01T05:53:47.271Z,2.90
2018-06-01T05:56:14.532Z,2.73
2018-06-01T05:58:41.785Z,2.50
2018-06-01T06:01:08.656Z,2.83
2018-06-01T06:03:35.903Z,2.73
2018-06-01T06:06:02.822Z,2.77
2018-06-01T06:08:29.681Z,2.57
2018-06-01T06:10:56.638Z,2.97
2018-06-01T06:13:23.620Z,2.53
2018-06-01T06:15:50.500Z,2.67
2018-06-01T06:18:17.440Z,2.87
2018-06-01T06:20:44.293Z,3.00
2018-06-01T06:23:11.341Z,3.10
2018-06-01T06:25:38.293Z,3.20
2018-06-01T06:28:05.144Z,3.00
2018-06-01T06:30:32.050Z,2.47
2018-06-01T06:32:58.950Z,3.07
2018-06-01T06:35:25.938Z,2.80
2018-06-01T06:37:52.798Z,2.80
2018-06-01T06:40:19.660Z,3.37
2018-06-01T06:42:46.627Z,3.30
2018-06-01T06:45:13.528Z,3.37
2018-06-01T06:47:40.395Z,3.13
2018-06-01T06:50:07.291Z,3.27
2018-06-01T06:52:34.239Z,3.53
2018-06-01T06:55:01.288Z,3.20
2018-06-01T06:57:28.154Z,3.10
2018-06-01T06:59:55.129Z,3.00
2018-06-01T07:02:22.076Z,3.40
2018-06-01T07:04:49.053Z,3.17
2018-06-01T07:07:15.965Z,2.93
2018-06-01T07:09:42.812Z,3.13
2018-06-01T07:12:09.820Z,3.13
2018-06-01T07:14:36.762Z,3.57
2018-06-01T07:17:03.629Z,2.93
2018-06-01T07:19:30.588Z,3.10
2018-06-01T07:21:57.552Z,3.40
2018-06-01T07:24:24.471Z,3.43
2018-06-01T07:26:51.820Z,3.40
2018-06-01T07:29:18.702Z,2.43
2018-06-01T07:31:45.561Z,2.90
2018-06-01T07:34:12.521Z,3.30
2018-06-01T07:36:39.768Z,3.10
2018-06-01T07:39:07.092Z,3.40
2018-06-01T07:41:33.984Z,3.40
2018-06-01T07:44:02.108Z,3.60
2018-06-01T07:46:29.010Z,3.77
2018-06-01T07:48:55.889Z,3.10
2018-06-01T07:51:22.747Z,3.90
2018-06-01T07:53:50.114Z,4.63
2018-06-01T07:56:17.445Z,3.80
2018-06-01T07:58:44.396Z,3.70
2018-06-01T08:01:11.292Z,3.20
2018-06-01T08:03:38.205Z,3.80
2018-06-01T08:06:05.484Z,4.03
2018-06-01T08:08:32.324Z,4.80
2018-06-01T08:10:59.184Z,4.10
2018-06-01T08:13:26.063Z,4.00
2018-06-01T08:15:52.952Z,3.80
2018-06-01T08:18:19.815Z,3.87
2018-06-01T08:20:47.070Z,3.60
2018-06-01T08:23:14.024Z,4.17
2018-06-01T08:25:40.892Z,3.50
2018-06-01T08:28:07.781Z,4.03
2018-06-01T08:30:34.699Z,4.10
2018-06-01T08:33:01.615Z,4.80
2018-06-01T08:35:28.583Z,4.60
2018-06-01T08:37:55.456Z,4.60
2018-06-01T08:40:22.409Z,4.60
2018-06-01T08:42:49.278Z,5.07
2018-06-01T08:45:16.240Z,4.50
2018-06-01T08:47:43.202Z,4.47
2018-06-01T08:50:10.052Z,3.90
2018-06-01T08:52:37.038Z,3.90
2018-06-01T08:55:03.957Z,3.60
2018-06-01T08:57:30.901Z,3.50
2018-06-01T08:59:57.770Z,3.80
2018-06-01T09:02:24.646Z,4.70
2018-06-01T09:04:51.618Z,5.30
2018-06-01T09:07:18.503Z,5.20
2018-06-01T09:09:45.792Z,4.70
2018-06-01T09:12:12.643Z,4.00
2018-06-01T09:14:39.513Z,4.70
2018-06-01T09:17:06.404Z,3.70
2018-06-01T09:19:33.335Z,3.93
2018-06-01T09:22:00.239Z,3.90
2018-06-01T09:24:27.132Z,4.07
2018-06-01T09:26:54.363Z,4.10
2018-06-01T09:29:21.617Z,4.20
2018-06-01T09:31:48.828Z,3.27
2018-06-01T09:34:15.892Z,3.60
2018-06-01T09:36:42.799Z,3.80
2018-06-01T09:39:09.876Z,3.80
2018-06-01T09:41:37.156Z,3.57
2018-06-01T09:44:04.267Z,4.20
2018-06-01T09:46:31.112Z,3.67
2018-06-01T09:48:58.068Z,4.27
2018-06-01T09:51:25.128Z,3.33
2018-06-01T09:53:52.003Z,3.97
2018-06-01T09:56:19.248Z,2.90
2018-06-01T09:58:46.437Z,2.50
2018-06-01T10:01:13.296Z,3.23
2018-06-01T10:03:40.148Z,3.73
2018-06-01T10:06:07.123Z,4.10
2018-06-01T10:08:34.056Z,3.60
2018-06-01T10:11:00.919Z,4.50
2018-06-01T10:13:27.800Z,3.50
2018-06-01T10:15:54.705Z,3.40
2018-06-01T10:18:22.105Z,3.63
2018-06-01T10:20:49.100Z,2.90
2018-06-01T10:23:16.205Z,3.33
2018-06-01T10:25:43.200Z,4.13
2018-06-01T10:28:10.121Z,3.37
2018-06-01T10:30:37.469Z,2.80
2018-06-01T10:33:04.837Z,3.40
2018-06-01T10:35:31.707Z,3.77
2018-06-01T10:37:58.574Z,2.80
2018-06-01T10:40:25.494Z,3.10
2018-06-01T10:42:52.386Z,2.90
2018-06-01T10:45:19.391Z,2.93
2018-06-01T10:47:46.771Z,3.17
2018-06-01T10:50:13.639Z,3.20
2018-06-01T10:52:40.488Z,2.53
2018-06-01T10:55:07.400Z,3.00
2018-06-01T10:57:34.646Z,3.60
2018-06-01T11:00:01.645Z,3.07
2018-06-01T11:02:28.581Z,2.53
2018-06-01T11:04:55.644Z,3.00
2018-06-01T11:07:22.520Z,2.73
2018-06-01T11:09:49.564Z,3.00
2018-06-01T11:12:16.456Z,2.40
2018-06-01T11:14:43.316Z,3.30
2018-06-01T11:17:10.225Z,4.03
2018-06-01T11:19:37.100Z,4.73
2018-06-01T11:22:03.994Z,4.10
2018-06-01T11:24:30.868Z,4.33
2018-06-01T11:26:58.187Z,4.10
2018-06-01T11:29:25.308Z,4.80
2018-06-01T11:31:52.566Z,4.90
2018-06-01T11:34:19.496Z,4.67
2018-06-01T11:36:46.348Z,4.37
2018-06-01T11:39:13.297Z,5.10
2018-06-01T11:41:40.188Z,5.13
2018-06-01T11:44:07.040Z,5.37
2018-06-01T11:46:33.884Z,4.27
2018-06-01T11:49:00.780Z,4.30
2018-06-01T11:51:28.136Z,3.47
2018-06-01T11:53:55.343Z,4.20
2018-06-01T11:56:22.630Z,3.90
2018-06-01T11:58:49.548Z,3.93
2018-06-01T12:01:16.860Z,3.73
2018-06-01T12:03:43.946Z,4.17
2018-06-01T12:06:11.006Z,3.50
2018-06-01T12:08:37.874Z,3.57
2018-06-01T12:11:04.851Z,3.47
2018-06-01T12:13:31.660Z,4.13
2018-06-01T12:15:58.909Z,3.80
2018-06-01T12:18:25.907Z,3.60
2018-06-01T12:20:52.764Z,3.97
2018-06-01T12:23:19.867Z,4.27
2018-06-01T12:25:46.656Z,4.80
2018-06-01T12:28:13.545Z,4.47
2018-06-01T12:30:40.400Z,4.63
2018-06-01T12:33:07.337Z,3.40
2018-06-01T12:35:34.183Z,4.27
2018-06-01T12:38:01.145Z,4.10
2018-06-01T12:40:28.038Z,3.60
2018-06-01T12:42:54.961Z,3.40
2018-06-01T12:45:22.246Z,3.87
2018-06-01T12:47:49.124Z,3.00
2018-06-01T12:50:16.041Z,2.83
2018-06-01T12:52:43.337Z,2.70
2018-06-01T12:55:10.183Z,2.60
2018-06-01T12:57:37.057Z,2.73
2018-06-01T13:00:03.920Z,2.87
2018-06-01T13:02:30.782Z,2.93
2018-06-01T13:04:57.641Z,2.63
2018-06-01T13:07:24.526Z,2.80
2018-06-01T13:09:51.394Z,3.03
2018-06-01T13:12:18.725Z,2.33
2018-06-01T13:14:45.820Z,2.30
2018-06-01T13:17:13.128Z,2.63
2018-06-01T13:19:39.965Z,2.77
2018-06-01T13:22:06.864Z,2.83
2018-06-01T13:24:33.736Z,2.50
2018-06-01T13:27:00.697Z,2.50
2018-06-01T13:29:27.540Z,2.70
2018-06-01T13:31:54.457Z,2.30
2018-06-01T13:34:21.322Z,2.90
2018-06-01T13:36:48.225Z,2.50
2018-06-01T13:39:15.076Z,3.37
2018-06-01T13:41:41.927Z,2.60
2018-06-01T13:44:08.832Z,2.57
2018-06-01T13:46:35.704Z,2.87
2018-06-01T13:49:02.571Z,2.30
2018-06-01T13:51:29.455Z,2.50
2018-06-01T13:53:56.327Z,2.30
2018-06-01T13:56:23.191Z,2.10
2018-06-01T13:58:50.106Z,2.30
2018-06-01T14:01:17.104Z,3.73
2018-06-01T14:03:44.029Z,3.37
2018-06-01T14:06:10.896Z,2.70
2018-06-01T14:08:37.832Z,2.60
2018-06-01T14:11:04.700Z,2.83
2018-06-01T14:13:31.656Z,2.70
2018-06-01T14:15:58.567Z,2.40
2018-06-01T14:18:25.415Z,2.03
2018-06-01T14:20:52.268Z,2.67
2018-06-01T14:23:19.500Z,2.23
2018-06-01T14:25:46.610Z,2.70
2018-06-01T14:28:13.876Z,2.60
2018-06-01T14:30:41.152Z,2.50
2018-06-01T14:33:08.560Z,2.43
2018-06-01T14:35:35.556Z,2.30
2018-06-01T14:38:02.415Z,2.57
2018-06-01T14:40:29.413Z,2.67
2018-06-01T14:42:56.785Z,2.10
2018-06-01T14:45:24.050Z,2.47
2018-06-01T14:47:50.931Z,2.40
2018-06-01T14:50:17.953Z,2.00
2018-06-01T14:52:45.274Z,2.37
2018-06-01T14:55:12.124Z,2.23
2018-06-01T14:57:39.063Z,2.27
2018-06-01T15:00:06.092Z,1.80
2018-06-01T15:02:32.936Z,2.40
2018-06-01T15:04:59.929Z,2.30
2018-06-01T15:07:26.943Z,2.40
2018-06-01T15:09:53.808Z,2.50
2018-06-01T15:12:20.717Z,2.60
2018-06-01T15:14:47.606Z,2.10
2018-06-01T15:17:14.510Z,1.97
2018-06-01T15:19:41.786Z,2.27
2018-06-01T15:22:09.039Z,2.10
2018-06-01T15:24:36.296Z,2.17
2018-06-01T15:27:03.603Z,2.47
2018-06-01T15:29:30.450Z,2.37
2018-06-01T15:31:57.338Z,2.90
2018-06-01T15:34:24.215Z,2.60
2018-06-01T15:36:51.172Z,2.40
2018-06-01T15:39:18.084Z,2.30
2018-06-01T15:41:45.080Z,2.60
2018-06-01T15:44:11.940Z,2.53
2018-06-01T15:46:38.796Z,2.07
2018-06-01T15:49:05.736Z,2.50
2018-06-01T15:51:32.589Z,2.37
2018-06-01T15:53:59.507Z,2.73
2018-06-01T15:56:26.388Z,2.40
2018-06-01T15:58:53.268Z,2.30
2018-06-01T16:01:20.125Z,2.10
2018-06-01T16:03:47.032Z,2.30
2018-06-01T16:06:14.387Z,2.20
2018-06-01T16:08:41.251Z,2.03
2018-06-01T16:11:08.121Z,2.17
2018-06-01T16:13:34.977Z,2.10
2018-06-01T16:16:02.374Z,2.10
2018-06-01T16:18:29.622Z,2.47
2018-06-01T16:20:56.859Z,2.57
2018-06-01T16:23:23.797Z,2.47
2018-06-01T16:25:50.744Z,2.47
2018-06-01T16:28:17.607Z,2.03
2018-06-01T16:30:44.479Z,2.30
2018-06-01T16:33:11.333Z,2.40
2018-06-01T16:35:38.280Z,2.03
2018-06-01T16:38:05.223Z,2.47
2018-06-01T16:40:32.073Z,2.57
2018-06-01T16:42:59.025Z,2.30
2018-06-01T16:45:25.903Z,2.13
2018-06-01T16:47:52.912Z,2.90
2018-06-01T16:50:19.751Z,2.30
2018-06-01T16:52:46.631Z,2.50
2018-06-01T16:55:13.906Z,2.37
2018-06-01T16:57:41.241Z,2.30
2018-06-01T17:00:08.156Z,2.30
2018-06-01T17:02:35.007Z,2.70
2018-06-01T17:05:01.899Z,2.20
2018-06-01T17:07:28.969Z,2.60
2018-06-01T17:09:55.829Z,2.70
2018-06-01T17:12:22.842Z,2.60
2018-06-01T17:14:50.125Z,2.43
2018-06-01T17:17:16.977Z,2.83
2018-06-01T17:19:43.936Z,2.00
2018-06-01T17:22:10.836Z,2.60
2018-06-01T17:24:37.741Z,2.27
2018-06-01T17:27:04.604Z,2.10
2018-06-01T17:29:31.499Z,2.10
2018-06-01T17:31:58.633Z,2.30
2018-06-01T17:34:25.526Z,2.70
2018-06-01T17:36:52.455Z,2.53
2018-06-01T17:39:19.347Z,2.60
2018-06-01T17:41:46.240Z,2.00
2018-06-01T17:44:13.823Z,2.20
2018-06-01T17:46:40.669Z,2.47
2018-06-01T17:49:08.150Z,2.30
2018-06-01T17:51:35.401Z,2.30
2018-06-01T17:54:02.256Z,2.57
2018-06-01T17:56:29.532Z,2.83
2018-06-01T17:58:56.906Z,2.97
2018-06-01T18:01:24.254Z,2.37
2018-06-01T18:03:51.193Z,2.40
2018-06-01T18:06:18.174Z,2.47
2018-06-01T18:08:45.497Z,2.60
2018-06-01T18:11:12.441Z,2.90
2018-06-01T18:13:39.321Z,3.13
2018-06-01T18:16:06.311Z,2.87
2018-06-01T18:18:33.169Z,3.17
2018-06-01T18:21:00.229Z,3.17
2018-06-01T18:23:27.072Z,3.47
2018-06-01T18:25:54.024Z,3.00
2018-06-01T18:28:20.971Z,3.30
2018-06-01T18:30:47.859Z,2.80
2018-06-01T18:33:14.704Z,3.50
2018-06-01T18:35:41.577Z,2.70
2018-06-01T18:38:08.591Z,3.37
2018-06-01T18:40:35.495Z,3.30
2018-06-01T18:43:02.402Z,2.70
2018-06-01T18:45:29.272Z,2.70
2018-06-01T18:47:56.155Z,3.10
2018-06-01T18:50:23.033Z,2.67
2018-06-01T18:52:49.957Z,3.30
2018-06-01T18:55:16.840Z,3.10
2018-06-01T18:57:43.764Z,2.80
2018-06-01T19:00:10.624Z,2.87
2018-06-01T19:02:37.559Z,2.90
2018-06-01T19:05:04.800Z,2.40
2018-06-01T19:07:32.047Z,2.00
2018-06-01T19:09:58.920Z,2.08
2018-06-01T19:12:26.179Z,1.90
2018-06-01T19:14:53.335Z,2.13
2018-06-01T19:17:20.256Z,2.60
2018-06-01T19:19:47.400Z,2.20
2018-06-01T19:22:14.268Z,2.50
2018-06-01T19:24:41.160Z,2.43
2018-06-01T19:27:08.183Z,2.43
2018-06-01T19:29:35.027Z,2.57
2018-06-01T19:32:01.918Z,2.57
2018-06-01T19:34:28.835Z,2.07
2018-06-01T19:36:55.723Z,2.40
2018-06-01T19:39:22.704Z,2.93
2018-06-01T19:41:49.568Z,2.70
2018-06-01T19:44:16.425Z,2.87
2018-06-01T19:46:43.303Z,3.13
2018-06-01T19:49:10.399Z,3.60
2018-06-01T19:51:37.282Z,2.63
2018-06-01T19:54:04.162Z,2.87
2018-06-01T19:56:31.110Z,2.60
2018-06-01T19:58:58.051Z,2.93
2018-06-01T20:01:25.302Z,2.87
2018-06-01T20:03:52.201Z,3.00
2018-06-01T20:06:19.329Z,3.00
2018-06-01T20:08:46.907Z,2.80
2018-06-01T20:11:13.976Z,2.40
2018-06-01T20:13:40.848Z,2.67
2018-06-01T20:16:07.788Z,3.50
2018-06-01T20:18:34.647Z,2.70
2018-06-01T20:21:01.533Z,2.90
2018-06-01T20:23:28.402Z,3.30
2018-06-01T20:25:55.388Z,2.80
2018-06-01T20:28:22.269Z,2.83
2018-06-01T20:30:49.232Z,2.80
2018-06-01T20:33:16.201Z,3.10
2018-06-01T20:35:43.185Z,2.83
2018-06-01T20:38:10.117Z,3.00
2018-06-01T20:40:37.082Z,3.03
2018-06-01T20:43:03.957Z,2.70
2018-06-01T20:45:30.824Z,2.80
2018-06-01T20:47:57.693Z,3.33
2018-06-01T20:50:24.557Z,2.80
2018-06-01T20:52:51.830Z,3.30
2018-06-01T20:55:19.116Z,3.23
2018-06-01T20:57:46.091Z,3.10
2018-06-01T21:00:13.257Z,3.43
2018-06-01T21:02:40.329Z,3.40
2018-06-01T21:05:07.224Z,3.70
2018-06-01T21:07:34.144Z,3.37
2018-06-01T21:10:01.100Z,3.50
2018-06-01T21:12:28.001Z,3.50
2018-06-01T21:14:55.029Z,4.70
2018-06-01T21:17:21.920Z,3.73
2018-06-01T21:19:48.846Z,4.10
2018-06-01T21:22:15.760Z,4.00
2018-06-01T21:24:42.997Z,3.87
2018-06-01T21:27:10.209Z,3.87
2018-06-01T21:29:37.188Z,3.63
2018-06-01T21:32:04.036Z,4.67
2018-06-01T21:34:31.409Z,5.97
2018-06-01T21:36:58.565Z,4.90
2018-06-01T21:39:25.561Z,5.13
2018-06-01T21:41:52.500Z,4.50
2018-06-01T21:44:19.445Z,4.60
2018-06-01T21:46:46.303Z,4.30
2018-06-01T21:49:13.184Z,4.07
2018-06-01T21:51:40.034Z,4.33
2018-06-01T21:54:07.273Z,3.90
2018-06-01T21:56:34.177Z,5.50
2018-06-01T21:59:01.036Z,3.53
2018-06-01T22:01:27.967Z,3.87
2018-06-01T22:03:54.859Z,4.10
2018-06-01T22:06:21.715Z,4.13
2018-06-01T22:08:48.590Z,3.90
2018-06-01T22:11:15.862Z,3.70
2018-06-01T22:13:43.452Z,4.03
2018-06-01T22:16:10.725Z,4.23
2018-06-01T22:18:38.005Z,4.53
2018-06-01T22:21:04.971Z,3.97
2018-06-01T22:23:31.849Z,5.50
2018-06-01T22:25:58.697Z,4.27
2018-06-01T22:28:25.640Z,4.27
2018-06-01T22:30:52.585Z,4.70
2018-06-01T22:33:19.454Z,4.90
2018-06-01T22:35:46.292Z,3.93
2018-06-01T22:38:13.213Z,4.30
2018-06-01T22:40:40.060Z,4.60
2018-06-01T22:43:06.988Z,4.10
2018-06-01T22:45:33.944Z,4.50
2018-06-01T22:48:00.816Z,4.17
2018-06-01T22:50:27.675Z,4.87
2018-06-01T22:52:54.655Z,4.70
2018-06-01T22:55:21.656Z,4.73
2018-06-01T22:57:49.052Z,5.90
2018-06-01T23:00:17.484Z,5.40
2018-06-01T23:02:44.489Z,5.63
2018-06-01T23:05:11.496Z,5.17
2018-06-01T23:07:38.419Z,5.17
2018-06-01T23:10:05.378Z,5.20
2018-06-01T23:12:32.365Z,4.18
2018-06-01T23:14:59.232Z,5.40
2018-06-01T23:17:26.165Z,4.80
2018-06-01T23:19:53.178Z,5.57
2018-06-01T23:22:20.012Z,5.70
2018-06-01T23:24:46.873Z,5.00
2018-06-01T23:27:13.748Z,5.00
2018-06-01T23:29:41.016Z,5.00
2018-06-01T23:32:08.247Z,5.47
2018-06-01T23:34:35.187Z,4.63
2018-06-01T23:37:02.047Z,4.60
2018-06-01T23:39:28.899Z,5.90
2018-06-01T23:41:55.781Z,5.33
2018-06-01T23:44:22.657Z,4.90
2018-06-01T23:46:49.918Z,5.17
2018-06-01T23:49:16.771Z,5.60
2018-06-01T23:51:43.652Z,6.83
2018-06-01T23:54:10.514Z,5.97
2018-06-01T23:56:37.369Z,5.87
2018-06-01T23:59:04.666Z,6.30
